Al-Kharj, Saudi Arabia

2:55 AM AST on September 20, 2014 (GMT +0300)
Prince Sultan Air Base | Change Station
CLOSE
Current Station
Airport
Location: Al Kharj Air Base,
Elevation: 1640 ft
Nearby Weather Stations

Elev 1640 ft 24.07 °N, 47.58 °E | Updated 1 hour ago

Clear
Clear
82 °F
Feels Like 82 °F
N
0
Wind Variable Wind from North

Today
High -- | Low -- °F
--% Chance of Precip.
Yesterday
High -- | Low -- °F
Precip. -- in
5:38 AM 5:49 PM
Waning Crescent, 16% visible
Pressure 29.89 in
Visibility -9999.0 miles
Clouds
Dew Point 34 °F
Humidity 17%
Rainfall 0.00 in
Snow Depth Not available.
UV Not available.
Pollen Not available.
Air Quality Not available.
Flu Activity Not available.
METAR OEKJ 192200Z 00000KT CAVOK 28/01 Q1012

More Conditions Fewer Conditions

Pressure 29.89 in
Visibility -9999.0 miles
Clouds
Dew Point 34 °F
Humidity 17%
Rainfall 0.00 in
Snow Depth Not available.
UV Not available.
Pollen Not available.
Air Quality Not available.
Flu Activity Not available.
METAR OEKJ 192200Z 00000KT CAVOK 28/01 Q1012

More Conditions Fewer Conditions

10-Day Weather Forecast

Almanac

Astronomy

Sep. 20, 2014 Rise Set
Actual Time 5:38 AM AST 5:49 PM AST
Civil Twilight 5:15 AM AST 6:12 PM AST
Nautical Twilight 4:49 AM AST 6:38 PM AST
Astronomical Twilight 4:22 AM AST 7:05 PM AST
Moon 2:16 AM AST (9/20) 3:23 PM AST (9/20)
Length of Visible Light 12h 56m
Length of Day
12h 10m
Tomorrow will be 1m 24s shorter.
Waning Crescent, 16% of the Moon is Illuminated
Sep 19
Waning Crescent
Sep 24
New
Oct 1
First Quarter
Oct 8
Full
Oct 15
Last Quarter

Yesterday's Extremes

Country Highs Country Lows

Community

WunderPhotos

Upload Photos

1,754,730 photos uploaded!

Nearby

Snow Depth

Not available.

Earthquake Activity

City Distance Mag. Time & Date
No recent earthquake activity has been reported nearby.
Minimum magnitude displayed is 2.5.

Coastal Water Temperatures

Place Temperature
No Stations Reporting

Nearby Weather Stations